Time;durP1;ratioP1;P1;durP2;ratioP2;P2;SDS_P1;SDS_P2;PMS_P1;PMS_P2;Temp;Humidity;BMP_temperature;BMP_pressure;BME280_temperature;BME280_humidity;BME280_pressure;Samples;Min_cycle;Max_cycle;Signal;HPM_P1;HPM_P2
2023/01/08 00:02:10;;;;;;;4.23;2.57;;;10.20;91.80;;;;;;5093973;27;20402;-89
2023/01/08 00:04:36;;;;;;;3.70;2.58;;;10.30;91.90;;;;;;5093095;27;20410;-90
2023/01/08 00:07:01;;;;;;;4.30;3.27;;;10.30;91.80;;;;;;5093908;27;20904;-90
2023/01/08 00:09:27;;;;;;;3.20;2.40;;;10.30;91.80;;;;;;5092350;27;20517;-91
2023/01/08 00:11:53;;;;;;;3.33;2.13;;;10.30;91.60;;;;;;5093620;27;20759;-91
2023/01/08 00:14:18;;;;;;;4.47;2.60;;;10.30;91.60;;;;;;5092733;27;20402;-90
2023/01/08 00:16:44;;;;;;;4.60;2.65;;;10.50;91.70;;;;;;5093692;27;20757;-91
2023/01/08 00:19:11;;;;;;;4.75;2.92;;;10.30;91.60;;;;;;5092974;27;20491;-90
2023/01/08 00:21:37;;;;;;;3.83;2.58;;;10.30;91.70;;;;;;5092963;27;20393;-92
2023/01/08 00:24:03;;;;;;;3.47;2.37;;;10.30;91.60;;;;;;5093536;27;20394;-91
2023/01/08 00:26:28;;;;;;;4.40;2.90;;;10.30;91.60;;;;;;5092107;27;20407;-89
2023/01/08 00:28:54;;;;;;;3.88;2.65;;;10.30;91.70;;;;;;5093124;27;20430;-90
2023/01/08 00:31:20;;;;;;;3.72;2.50;;;10.30;91.50;;;;;;5091976;27;20891;-91
2023/01/08 00:33:45;;;;;;;3.73;2.90;;;10.40;91.60;;;;;;5093282;27;20897;-89
2023/01/08 00:36:14;;;;;;;3.70;2.55;;;10.40;91.60;;;;;;5109590;27;20491;-88
2023/01/08 00:38:41;;;;;;;5.13;2.80;;;10.20;91.70;;;;;;5093158;27;20811;-91
2023/01/08 00:41:07;;;;;;;4.63;2.70;;;10.20;91.60;;;;;;5109406;27;20398;-88
2023/01/08 00:43:33;;;;;;;4.53;3.10;;;10.20;91.70;;;;;;5092300;27;20904;-90
2023/01/08 00:45:59;;;;;;;4.20;3.00;;;10.20;91.70;;;;;;5109979;27;20917;-90
2023/01/08 00:48:24;;;;;;;4.30;2.60;;;10.20;91.80;;;;;;5091802;27;20410;-90
2023/01/08 00:50:51;;;;;;;4.90;2.58;;;10.20;91.80;;;;;;5109857;27;20458;-91
2023/01/08 00:53:18;;;;;;;3.97;2.47;;;10.10;91.70;;;;;;5109174;27;20944;-88
2023/01/08 00:55:44;;;;;;;4.00;2.47;;;10.10;91.60;;;;;;5109931;27;20401;-89
2023/01/08 00:58:10;;;;;;;4.32;2.40;;;10.10;91.60;;;;;;5092801;27;20391;-91
2023/01/08 01:00:36;;;;;;;3.95;2.33;;;10.00;91.60;;;;;;5092571;27;20725;-89
2023/01/08 01:03:02;;;;;;;3.90;2.67;;;10.00;91.60;;;;;;5092310;27;20398;-91
2023/01/08 01:05:28;;;;;;;4.22;2.45;;;10.00;91.60;;;;;;5091946;27;20430;-91
2023/01/08 01:07:53;;;;;;;3.55;1.92;;;9.90;91.70;;;;;;5093095;27;20406;-91
2023/01/08 01:10:19;;;;;;;4.00;2.47;;;9.90;91.70;;;;;;5091636;27;20422;-90
2023/01/08 01:12:45;;;;;;;4.07;2.22;;;9.90;91.80;;;;;;5109377;27;20499;-90
2023/01/08 01:15:13;;;;;;;3.67;2.15;;;9.90;91.80;;;;;;5091646;27;20912;-89
2023/01/08 01:17:40;;;;;;;4.13;2.42;;;9.90;91.80;;;;;;5092125;27;20426;-90
2023/01/08 01:20:08;;;;;;;4.35;1.98;;;9.90;91.90;;;;;;5092431;27;20402;-91
2023/01/08 01:22:34;;;;;;;4.38;1.92;;;9.90;91.80;;;;;;5091769;27;20757;-89
2023/01/08 01:24:59;;;;;;;5.82;2.05;;;10.40;91.80;;;;;;5109185;27;20489;-90
2023/01/08 01:27:25;;;;;;;4.20;2.03;;;9.90;91.70;;;;;;5091108;27;20483;-91
2023/01/08 01:29:52;;;;;;;5.53;2.03;;;9.90;91.70;;;;;;5092005;27;20843;-91
2023/01/08 01:32:17;;;;;;;5.78;2.40;;;9.90;91.80;;;;;;5091335;27;20403;-90
2023/01/08 01:34:43;;;;;;;4.88;2.22;;;9.80;91.80;;;;;;5092379;27;20414;-90
2023/01/08 01:37:12;;;;;;;4.97;1.80;;;9.80;91.80;;;;;;5091687;27;20482;-90
2023/01/08 01:39:37;;;;;;;6.25;1.83;;;9.80;91.90;;;;;;5091441;27;20464;-91
2023/01/08 01:42:03;;;;;;;5.03;1.98;;;9.70;91.70;;;;;;5108936;27;20391;-89
2023/01/08 01:44:37;;;;;;;5.10;1.77;;;9.70;91.70;;;;;;5090535;27;20415;-90
2023/01/08 01:47:13;;;;;;;5.03;1.90;;;9.70;91.60;;;;;;5109339;27;20672;-90
2023/01/08 01:49:43;;;;;;;6.03;2.00;;;9.70;91.60;;;;;;5091175;27;20981;-89
2023/01/08 01:52:10;;;;;;;5.05;1.90;;;9.70;91.40;;;;;;5091577;27;20394;-89
2023/01/08 01:54:36;;;;;;;7.13;1.97;;;9.70;91.50;;;;;;5091234;27;20391;-91
2023/01/08 01:57:03;;;;;;;4.10;1.60;;;9.60;91.60;;;;;;5090921;27;20486;-90
2023/01/08 01:59:28;;;;;;;5.93;1.70;;;9.60;91.60;;;;;;5091805;27;20398;-90
2023/01/08 02:01:55;;;;;;;6.38;1.80;;;9.50;91.50;;;;;;5090866;27;20551;-91
2023/01/08 02:04:20;;;;;;;6.25;1.70;;;9.80;91.60;;;;;;5091455;27;20409;-90
2023/01/08 02:07:04;;;;;;;7.18;1.73;;;9.50;91.50;;;;;;5091050;27;20398;-91
2023/01/08 02:09:42;;;;;;;8.13;1.70;;;9.50;91.60;;;;;;5090810;27;20434;-90
2023/01/08 02:12:17;;;;;;;5.43;1.73;;;9.50;91.60;;;;;;5091447;27;20483;-90
2023/01/08 02:15:03;;;;;;;6.32;2.05;;;9.50;91.60;;;;;;5107444;27;20965;-88
2023/01/08 02:17:48;;;;;;;5.75;1.40;;;9.40;91.70;;;;;;5091651;27;20399;-90
2023/01/08 02:20:22;;;;;;;7.72;1.88;;;9.40;91.30;;;;;;5090657;27;20609;-90
2023/01/08 02:22:54;;;;;;;7.97;1.50;;;9.40;91.20;;;;;;5091092;27;20555;-89
2023/01/08 02:25:22;;;;;;;6.10;1.08;;;9.40;91.00;;;;;;5091248;27;20457;-89
2023/01/08 02:27:50;;;;;;;9.63;1.48;;;9.40;90.70;;;;;;5106899;27;20419;-89
2023/01/08 02:30:17;;;;;;;7.07;1.60;;;9.40;90.40;;;;;;5091305;27;20428;-91
2023/01/08 02:32:43;;;;;;;10.52;1.45;;;9.30;90.30;;;;;;5090136;27;20427;-90
2023/01/08 02:35:09;;;;;;;10.85;1.58;;;9.30;90.20;;;;;;5091474;27;20491;-89
2023/01/08 02:37:36;;;;;;;8.38;1.45;;;9.30;90.30;;;;;;5091056;27;20409;-91
2023/01/08 02:40:16;;;;;;;10.95;1.60;;;9.30;90.40;;;;;;5091108;27;20399;-91
2023/01/08 02:42:49;;;;;;;10.73;1.48;;;9.20;90.30;;;;;;5090629;27;20394;-89
2023/01/08 02:45:30;;;;;;;7.47;1.27;;;9.20;90.40;;;;;;5106769;27;20418;-89
2023/01/08 02:48:24;;;;;;;10.90;1.50;;;9.20;90.60;;;;;;5091199;27;20403;-90
2023/01/08 02:51:12;;;;;;;11.07;1.10;;;9.10;90.30;;;;;;5090290;28;20506;-90
2023/01/08 02:53:42;;;;;;;8.82;1.02;;;9.10;90.40;;;;;;5089630;28;20410;-91
2023/01/08 02:56:12;;;;;;;10.70;1.20;;;9.00;90.50;;;;;;5091345;28;20626;-91
2023/01/08 02:58:39;;;;;;;11.27;1.98;;;9.00;90.80;;;;;;5089646;28;20398;-90
2023/01/08 03:01:08;;;;;;;12.02;1.60;;;8.90;90.80;;;;;;5091295;28;20391;-91
2023/01/08 03:03:36;;;;;;;11.77;1.58;;;9.10;90.90;;;;;;5090227;28;20493;-89
2023/01/08 03:06:07;;;;;;;11.77;1.60;;;8.90;91.10;;;;;;5090793;28;20399;-89
2023/01/08 03:08:37;;;;;;;12.65;1.40;;;8.80;91.10;;;;;;5091043;28;20924;-90
2023/01/08 03:11:06;;;;;;;10.60;1.47;;;8.80;91.20;;;;;;5089606;28;20456;-90
2023/01/08 03:13:44;;;;;;;9.65;1.63;;;8.80;91.30;;;;;;5108008;28;20394;-91
2023/01/08 03:16:26;;;;;;;13.05;1.17;;;8.70;91.40;;;;;;5089891;28;20422;-91
2023/01/08 03:19:00;;;;;;;11.10;1.33;;;8.70;91.40;;;;;;5090219;28;20757;-91
2023/01/08 03:21:26;;;;;;;10.85;1.60;;;8.70;91.50;;;;;;5107844;28;20399;-90
2023/01/08 03:23:52;;;;;;;13.80;2.00;;;8.60;91.50;;;;;;5089512;28;20445;-90
2023/01/08 03:26:22;;;;;;;8.27;0.98;;;8.90;91.80;;;;;;5090591;28;20426;-91
2023/01/08 03:28:52;;;;;;;13.07;2.20;;;8.50;91.70;;;;;;5089817;28;20905;-91
2023/01/08 03:31:20;;;;;;;12.38;1.60;;;8.40;91.90;;;;;;5090969;28;20478;-91
2023/01/08 03:33:46;;;;;;;7.93;1.10;;;8.40;92.00;;;;;;5090438;28;20469;-91
2023/01/08 03:36:16;;;;;;;13.82;1.67;;;8.30;92.20;;;;;;5090453;28;21231;-91
2023/01/08 03:38:47;;;;;;;12.02;1.23;;;8.30;92.60;;;;;;5090361;28;20438;-89
2023/01/08 03:41:17;;;;;;;11.77;1.30;;;8.40;92.50;;;;;;5089807;28;20731;-90
2023/01/08 03:43:43;;;;;;;8.30;1.20;;;8.20;92.70;;;;;;5090787;28;20939;-91
2023/01/08 03:46:15;;;;;;;7.80;1.27;;;8.30;92.90;;;;;;5089126;28;20440;-92
2023/01/08 03:48:41;;;;;;;11.65;1.65;;;8.30;93.00;;;;;;5090835;28;20904;-90
2023/01/08 03:51:08;;;;;;;9.80;1.40;;;8.30;93.10;;;;;;5106816;28;20422;-91
2023/01/08 03:53:34;;;;;;;9.77;1.40;;;8.30;93.30;;;;;;5106662;28;20391;-91
2023/01/08 03:55:59;;;;;;;7.10;1.02;;;8.30;93.30;;;;;;5090163;28;20909;-91
2023/01/08 03:58:25;;;;;;;8.47;1.47;;;8.30;93.40;;;;;;5106446;28;20395;-91
2023/01/08 04:00:51;;;;;;;8.67;1.70;;;8.30;93.50;;;;;;5090570;28;20490;-90
2023/01/08 04:03:17;;;;;;;7.50;1.30;;;8.30;93.40;;;;;;5088933;28;20418;-90
2023/01/08 04:05:43;;;;;;;8.13;1.50;;;8.30;93.50;;;;;;5090669;28;20398;-91
2023/01/08 04:08:09;;;;;;;7.57;1.50;;;8.30;93.60;;;;;;5089320;28;20398;-90
2023/01/08 04:10:34;;;;;;;7.43;1.55;;;8.30;93.70;;;;;;5090189;28;20454;-91
2023/01/08 04:13:00;;;;;;;8.45;1.63;;;8.30;93.70;;;;;;5089478;28;20406;-89
2023/01/08 04:15:26;;;;;;;9.03;1.57;;;8.30;93.80;;;;;;5091451;27;20438;-91
2023/01/08 04:17:52;;;;;;;8.13;1.70;;;8.20;93.80;;;;;;5111139;27;20398;-90
2023/01/08 04:20:18;;;;;;;7.57;1.13;;;8.30;93.80;;;;;;5092605;27;20409;-91
2023/01/08 04:22:44;;;;;;;7.63;1.35;;;8.30;93.90;;;;;;5094087;27;20419;-91
2023/01/08 04:25:10;;;;;;;9.00;1.40;;;8.20;93.90;;;;;;5092733;27;20430;-91
2023/01/08 04:27:35;;;;;;;5.43;1.00;;;8.20;94.00;;;;;;5093581;27;20402;-92
2023/01/08 04:30:01;;;;;;;6.03;1.10;;;8.20;94.00;;;;;;5092973;27;20467;-90
2023/01/08 04:32:26;;;;;;;5.97;1.30;;;8.20;94.00;;;;;;5093141;27;20390;-91
2023/01/08 04:34:52;;;;;;;6.90;1.40;;;8.20;94.00;;;;;;5093269;27;20402;-89
2023/01/08 04:37:17;;;;;;;6.45;1.25;;;8.20;93.90;;;;;;5092541;27;20917;-90
2023/01/08 04:39:43;;;;;;;7.83;1.40;;;8.20;94.00;;;;;;5093499;27;20505;-90
2023/01/08 04:42:09;;;;;;;7.47;1.30;;;8.30;94.00;;;;;;5092228;27;20407;-90
2023/01/08 04:44:34;;;;;;;7.33;1.20;;;8.30;94.00;;;;;;5093177;27;20399;-91
2023/01/08 04:47:00;;;;;;;7.47;1.47;;;8.30;94.00;;;;;;5092232;27;20390;-89
2023/01/08 04:49:25;;;;;;;6.75;1.30;;;8.30;94.00;;;;;;5093025;27;20469;-90
2023/01/08 04:51:51;;;;;;;7.07;1.33;;;8.30;94.00;;;;;;5092865;27;20482;-91
2023/01/08 04:54:17;;;;;;;6.40;1.58;;;8.30;94.00;;;;;;5109887;27;20398;-90
2023/01/08 04:56:42;;;;;;;5.63;0.98;;;8.30;94.00;;;;;;5093709;27;20489;-89
2023/01/08 04:59:08;;;;;;;5.03;1.10;;;8.30;94.00;;;;;;5092072;27;20413;-89
2023/01/08 05:01:34;;;;;;;5.83;1.37;;;8.30;94.00;;;;;;5093317;27;20422;-90
2023/01/08 05:04:02;;;;;;;5.30;1.27;;;8.30;94.00;;;;;;5091608;27;20795;-91
2023/01/08 05:06:29;;;;;;;4.20;1.20;;;8.30;93.90;;;;;;5093083;27;20391;-90
2023/01/08 05:08:55;;;;;;;6.60;1.50;;;8.40;94.00;;;;;;5108669;27;20411;-90
2023/01/08 05:11:21;;;;;;;5.07;1.20;;;8.40;93.90;;;;;;5092264;27;20413;-89
2023/01/08 05:13:48;;;;;;;4.75;1.48;;;8.40;93.90;;;;;;5092328;27;20406;-90
2023/01/08 05:16:14;;;;;;;5.50;1.50;;;8.40;93.90;;;;;;5091615;27;20474;-90
2023/01/08 05:18:39;;;;;;;4.90;1.63;;;8.50;93.90;;;;;;5093127;27;20430;-91
2023/01/08 05:21:05;;;;;;;5.53;1.50;;;8.50;93.90;;;;;;5091725;27;20395;-90
2023/01/08 05:23:32;;;;;;;5.87;1.37;;;8.50;93.90;;;;;;5092876;27;20425;-89
2023/01/08 05:25:58;;;;;;;5.85;1.50;;;8.50;93.90;;;;;;5091274;27;20486;-90
2023/01/08 05:28:25;;;;;;;4.85;1.45;;;8.50;93.90;;;;;;5092511;27;20386;-90
2023/01/08 05:30:50;;;;;;;4.53;1.40;;;8.50;93.80;;;;;;5091856;27;20426;-89
2023/01/08 05:33:16;;;;;;;7.13;1.70;;;8.40;93.90;;;;;;5109191;27;20497;-90
2023/01/08 05:35:41;;;;;;;7.50;1.50;;;8.40;93.90;;;;;;5092476;27;20397;-88
2023/01/08 05:38:07;;;;;;;5.90;1.83;;;8.40;93.90;;;;;;5108099;27;20398;-90
2023/01/08 05:40:33;;;;;;;5.70;1.92;;;8.40;93.90;;;;;;5092533;27;20462;-90
2023/01/08 05:42:59;;;;;;;5.57;1.40;;;8.40;94.00;;;;;;5108345;27;20418;-90
2023/01/08 05:45:25;;;;;;;5.60;1.67;;;8.30;94.00;;;;;;5092394;27;20405;-89
2023/01/08 05:47:51;;;;;;;8.30;1.80;;;8.30;94.00;;;;;;5108636;27;20409;-90
2023/01/08 05:50:16;;;;;;;4.50;1.50;;;8.30;94.00;;;;;;5091730;27;20426;-89
2023/01/08 05:52:42;;;;;;;5.00;1.37;;;8.30;94.00;;;;;;5091787;27;20399;-90
2023/01/08 05:55:08;;;;;;;6.10;1.75;;;8.20;94.00;;;;;;5090919;27;20401;-91
2023/01/08 05:57:34;;;;;;;5.70;1.42;;;8.20;94.10;;;;;;5092273;27;20403;-89
2023/01/08 05:59:59;;;;;;;6.45;1.20;;;8.10;94.00;;;;;;5090407;27;21025;-90
2023/01/08 06:02:25;;;;;;;4.17;1.17;;;8.40;94.20;;;;;;5109367;27;20569;-90
2023/01/08 06:04:51;;;;;;;5.97;1.65;;;8.10;94.10;;;;;;5090753;27;20406;-90
2023/01/08 06:07:16;;;;;;;6.97;1.30;;;8.00;94.10;;;;;;5091318;27;20410;-90
2023/01/08 06:09:42;;;;;;;5.43;1.13;;;8.00;94.10;;;;;;5090849;27;20433;-90
2023/01/08 06:12:08;;;;;;;5.10;1.00;;;8.20;94.10;;;;;;5107887;27;20964;-90
2023/01/08 06:14:33;;;;;;;5.15;0.77;;;8.20;94.10;;;;;;5091876;27;20407;-90
2023/01/08 06:16:59;;;;;;;5.50;0.90;;;7.90;94.00;;;;;;5090113;27;21279;-90
2023/01/08 06:19:25;;;;;;;6.40;1.00;;;7.90;94.00;;;;;;5091268;27;20394;-91
2023/01/08 06:21:50;;;;;;;5.57;0.80;;;7.90;93.90;;;;;;5106864;27;20457;-89
2023/01/08 06:24:16;;;;;;;5.47;0.83;;;7.90;93.80;;;;;;5091199;27;20489;-90
2023/01/08 06:26:41;;;;;;;5.33;0.90;;;7.90;93.70;;;;;;5090313;27;21006;-89
2023/01/08 06:29:08;;;;;;;4.90;0.63;;;7.90;93.60;;;;;;5091029;27;20466;-90
2023/01/08 06:31:34;;;;;;;6.20;0.88;;;7.90;93.50;;;;;;5091322;27;20402;-89
2023/01/08 06:33:59;;;;;;;6.82;1.00;;;7.90;93.50;;;;;;5090456;27;20407;-92
2023/01/08 06:36:25;;;;;;;8.43;1.25;;;7.90;93.30;;;;;;5091910;27;20407;-90
2023/01/08 06:38:50;;;;;;;4.90;0.70;;;7.90;93.30;;;;;;5089448;27;20472;-90
2023/01/08 06:41:16;;;;;;;7.07;1.08;;;7.90;93.20;;;;;;5108439;27;20405;-91
2023/01/08 06:43:41;;;;;;;5.37;0.80;;;7.90;93.20;;;;;;5090151;27;20453;-91
2023/01/08 06:46:09;;;;;;;5.17;0.73;;;7.90;93.10;;;;;;5107942;27;20407;-91
2023/01/08 06:48:35;;;;;;;5.78;0.93;;;7.90;93.10;;;;;;5090791;27;20944;-89
2023/01/08 06:51:02;;;;;;;4.22;1.10;;;7.80;93.20;;;;;;5090867;28;20419;-90
2023/01/08 06:53:27;;;;;;;6.17;1.10;;;7.60;93.30;;;;;;5090718;27;20502;-90
2023/01/08 06:55:55;;;;;;;7.83;1.43;;;7.80;93.50;;;;;;5090079;27;20398;-90
2023/01/08 06:58:30;;;;;;;5.85;1.38;;;7.70;93.60;;;;;;5091288;28;20394;-91
2023/01/08 07:00:57;;;;;;;5.80;1.40;;;7.70;93.90;;;;;;5089925;28;20398;-89
2023/01/08 07:03:23;;;;;;;4.90;1.52;;;7.70;94.10;;;;;;5091003;28;20455;-89
2023/01/08 07:05:49;;;;;;;5.55;2.15;;;7.50;94.20;;;;;;5090326;28;20395;-89
2023/01/08 07:08:16;;;;;;;5.97;1.60;;;7.60;94.30;;;;;;5090704;28;20411;-91
2023/01/08 07:10:43;;;;;;;5.30;1.55;;;7.60;94.40;;;;;;5090756;28;20925;-88
2023/01/08 07:13:11;;;;;;;5.22;1.60;;;7.50;94.50;;;;;;5089792;28;20415;-91
2023/01/08 07:15:37;;;;;;;5.57;1.75;;;7.60;94.50;;;;;;5108330;28;20394;-90
2023/01/08 07:18:04;;;;;;;5.07;1.52;;;7.50;94.50;;;;;;5089749;28;20407;-91
2023/01/08 07:20:33;;;;;;;7.32;1.75;;;7.50;94.40;;;;;;5107735;28;20893;-90
2023/01/08 07:23:09;;;;;;;6.40;2.50;;;7.50;94.70;;;;;;5090006;28;20390;-89
2023/01/08 07:25:34;;;;;;;7.07;2.40;;;7.40;94.60;;;;;;5090425;28;20406;-90
2023/01/08 07:28:00;;;;;;;6.47;2.15;;;7.40;94.70;;;;;;5090795;28;20401;-90
2023/01/08 07:30:26;;;;;;;6.82;2.75;;;7.40;94.80;;;;;;5106710;28;20457;-90
2023/01/08 07:32:52;;;;;;;7.80;3.00;;;7.40;95.00;;;;;;5107395;28;20936;-91
2023/01/08 07:35:17;;;;;;;8.63;3.28;;;7.40;95.10;;;;;;5106283;28;20885;-90
2023/01/08 07:37:43;;;;;;;6.90;3.60;;;7.40;95.10;;;;;;5090716;28;20482;-90
2023/01/08 07:40:10;;;;;;;8.98;3.95;;;7.40;95.30;;;;;;5089855;28;20485;-90
2023/01/08 07:42:36;;;;;;;6.25;3.47;;;7.40;95.20;;;;;;5090663;28;20395;-91
2023/01/08 07:45:02;;;;;;;6.83;3.67;;;7.40;95.30;;;;;;5089808;28;20409;-90
2023/01/08 07:47:28;;;;;;;7.87;3.63;;;7.40;95.50;;;;;;5107089;28;20406;-90
2023/01/08 07:49:53;;;;;;;8.10;3.77;;;7.40;95.50;;;;;;5092698;27;20514;-89
2023/01/08 07:52:19;;;;;;;8.77;3.90;;;7.40;95.80;;;;;;5092800;27;20406;-91
2023/01/08 07:54:44;;;;;;;8.27;3.93;;;7.40;95.40;;;;;;5094325;27;20407;-90
2023/01/08 07:57:10;;;;;;;9.77;4.35;;;7.40;95.50;;;;;;5093034;27;20966;-90
2023/01/08 07:59:36;;;;;;;8.50;4.20;;;7.40;95.40;;;;;;5094148;27;20410;-90
2023/01/08 08:02:01;;;;;;;8.63;4.20;;;7.40;95.30;;;;;;5093512;27;20478;-90
2023/01/08 08:04:27;;;;;;;8.02;4.53;;;7.40;95.30;;;;;;5093665;27;20893;-90
2023/01/08 08:06:53;;;;;;;10.02;4.18;;;7.40;95.30;;;;;;5093491;27;20803;-90
2023/01/08 08:09:19;;;;;;;7.22;3.67;;;7.40;95.30;;;;;;5092897;27;20457;-90
2023/01/08 08:11:45;;;;;;;6.57;3.25;;;7.40;95.30;;;;;;5094066;27;20430;-90
2023/01/08 08:14:10;;;;;;;8.25;3.10;;;7.40;95.20;;;;;;5110077;27;20467;-91
2023/01/08 08:16:36;;;;;;;6.80;3.00;;;7.40;95.10;;;;;;5094643;27;20391;-89
2023/01/08 08:19:02;;;;;;;7.72;2.85;;;7.40;95.10;;;;;;5092773;27;20390;-90
2023/01/08 08:21:28;;;;;;;7.78;2.53;;;7.40;95.00;;;;;;5093765;27;20495;-89
2023/01/08 08:23:54;;;;;;;8.77;2.42;;;7.50;94.90;;;;;;5109827;27;20391;-90
2023/01/08 08:26:20;;;;;;;7.55;2.20;;;7.50;94.80;;;;;;5093318;27;20497;-89
2023/01/08 08:28:45;;;;;;;8.73;2.17;;;7.60;94.70;;;;;;5093163;27;20501;-87
2023/01/08 08:31:11;;;;;;;8.63;2.37;;;7.50;94.60;;;;;;5092352;27;20923;-90
2023/01/08 08:33:36;;;;;;;9.50;1.83;;;7.60;94.50;;;;;;5093164;27;20911;-89
2023/01/08 08:36:02;;;;;;;8.13;1.90;;;7.60;94.50;;;;;;5092337;27;20447;-89
2023/01/08 08:38:28;;;;;;;6.70;1.53;;;7.70;94.50;;;;;;5110346;27;20431;-90
2023/01/08 08:40:53;;;;;;;9.63;1.73;;;7.60;94.30;;;;;;5092742;27;20405;-88
2023/01/08 08:43:19;;;;;;;7.82;2.10;;;7.70;94.30;;;;;;5092900;27;20410;-89
2023/01/08 08:45:45;;;;;;;9.52;2.35;;;7.70;94.20;;;;;;5092557;27;20931;-89
2023/01/08 08:48:10;;;;;;;7.07;1.60;;;7.70;94.10;;;;;;5092540;27;20940;-89
2023/01/08 08:50:36;;;;;;;7.93;1.40;;;7.70;94.10;;;;;;5093155;27;20849;-90
2023/01/08 08:53:04;;;;;;;7.38;1.65;;;7.70;94.30;;;;;;5091998;27;20387;-90
2023/01/08 08:55:30;;;;;;;7.75;1.65;;;7.80;93.90;;;;;;5093391;27;20774;-89
2023/01/08 08:58:03;;;;;;;7.55;1.23;;;7.80;93.90;;;;;;5091869;27;20485;-89
2023/01/08 09:00:28;;;;;;;8.60;1.33;;;7.80;93.80;;;;;;5092346;27;20391;-90
2023/01/08 09:02:54;;;;;;;6.43;1.23;;;7.80;93.80;;;;;;5092932;27;21042;-90
2023/01/08 09:05:20;;;;;;;6.67;1.00;;;7.90;93.80;;;;;;5092877;27;20390;-90
2023/01/08 09:07:45;;;;;;;7.30;1.23;;;7.90;93.70;;;;;;5092315;27;20555;-90
2023/01/08 09:10:11;;;;;;;7.83;1.27;;;7.90;93.70;;;;;;5108308;27;20453;-90
2023/01/08 09:12:36;;;;;;;7.73;1.47;;;7.90;93.70;;;;;;5110195;27;20803;-90
2023/01/08 09:15:02;;;;;;;7.40;1.25;;;7.90;93.70;;;;;;5108647;27;20387;-91
2023/01/08 09:17:28;;;;;;;6.45;1.30;;;8.00;93.80;;;;;;5092211;27;20761;-90
2023/01/08 09:19:53;;;;;;;6.87;1.37;;;8.00;93.70;;;;;;5092028;27;20439;-91
2023/01/08 09:22:19;;;;;;;6.82;1.40;;;8.10;93.70;;;;;;5092150;27;20397;-89
2023/01/08 09:24:45;;;;;;;6.38;1.40;;;8.10;93.60;;;;;;5092348;27;20403;-89
2023/01/08 09:27:10;;;;;;;7.73;1.70;;;8.20;93.70;;;;;;5092216;27;20441;-90
2023/01/08 09:29:36;;;;;;;7.00;1.43;;;8.20;93.60;;;;;;5092266;27;20513;-90
2023/01/08 09:32:06;;;;;;;7.07;1.52;;;8.20;93.50;;;;;;5108723;27;20497;-90
2023/01/08 09:34:31;;;;;;;7.85;1.40;;;8.20;93.30;;;;;;5092292;27;20394;-90
2023/01/08 09:36:57;;;;;;;7.30;1.33;;;8.30;93.30;;;;;;5091302;27;20495;-90
2023/01/08 09:39:22;;;;;;;7.22;1.70;;;8.30;93.10;;;;;;5092865;27;20407;-90
2023/01/08 09:41:49;;;;;;;5.13;1.20;;;8.30;92.90;;;;;;5108502;27;20391;-89
2023/01/08 09:44:19;;;;;;;6.30;1.40;;;8.40;92.70;;;;;;5091528;27;20454;-89
2023/01/08 09:46:46;;;;;;;7.10;1.52;;;8.50;92.60;;;;;;5092034;27;20988;-89
2023/01/08 09:49:20;;;;;;;6.80;1.25;;;8.80;92.40;;;;;;5090264;27;20433;-90
2023/01/08 09:51:46;;;;;;;7.10;1.10;;;9.20;92.00;;;;;;5091948;27;20482;-89
2023/01/08 09:54:16;;;;;;;6.38;0.80;;;9.00;91.30;;;;;;5090877;27;21004;-90
2023/01/08 09:56:43;;;;;;;6.93;0.80;;;9.20;91.10;;;;;;5091852;27;20418;-91
2023/01/08 09:59:13;;;;;;;7.28;1.23;;;9.30;90.70;;;;;;5091145;27;20394;-89
2023/01/08 10:01:39;;;;;;;6.40;1.23;;;9.40;90.40;;;;;;5091490;27;20394;-90
2023/01/08 10:04:11;;;;;;;7.27;1.23;;;9.50;90.00;;;;;;5091377;27;20398;-90
2023/01/08 10:06:39;;;;;;;5.57;0.93;;;9.50;90.10;;;;;;5090467;27;20774;-90
2023/01/08 10:09:05;;;;;;;7.13;1.20;;;9.60;89.90;;;;;;5091601;27;20450;-90
2023/01/08 10:11:46;;;;;;;6.13;0.90;;;9.60;89.30;;;;;;5090670;27;20395;-89
2023/01/08 10:14:24;;;;;;;6.72;1.00;;;9.60;89.30;;;;;;5090251;27;20399;-90
2023/01/08 10:16:55;;;;;;;5.82;0.88;;;9.60;88.60;;;;;;5091426;27;20411;-90
2023/01/08 10:19:22;;;;;;;5.75;1.30;;;9.60;89.00;;;;;;5091074;27;20399;-89
2023/01/08 10:21:47;;;;;;;6.57;1.20;;;9.60;89.00;;;;;;5091955;27;20391;-90
2023/01/08 10:24:13;;;;;;;7.53;1.17;;;9.50;88.90;;;;;;5090556;27;20467;-89
2023/01/08 10:26:39;;;;;;;7.10;0.90;;;9.50;89.20;;;;;;5108804;27;21234;-90
2023/01/08 10:29:11;;;;;;;7.43;1.48;;;9.60;89.00;;;;;;5090213;27;20406;-91
2023/01/08 10:31:49;;;;;;;7.20;0.93;;;9.50;89.50;;;;;;5090895;27;20418;-91
2023/01/08 10:34:43;;;;;;;7.07;0.82;;;9.50;88.20;;;;;;5090840;27;20761;-90
2023/01/08 10:37:36;;;;;;;7.22;1.10;;;9.50;87.80;;;;;;5090267;27;20406;-90
2023/01/08 10:40:16;;;;;;;8.00;1.10;;;9.50;88.70;;;;;;5090690;27;20485;-90
2023/01/08 10:42:41;;;;;;;7.63;1.10;;;9.50;88.20;;;;;;5107479;27;20411;-88
2023/01/08 10:45:20;;;;;;;6.80;1.20;;;9.50;88.10;;;;;;5090162;27;20842;-89
2023/01/08 10:47:48;;;;;;;5.97;1.00;;;9.60;88.00;;;;;;5091354;28;20758;-90
2023/01/08 10:50:33;;;;;;;10.23;1.40;;;9.60;88.00;;;;;;5106523;27;20422;-90
2023/01/08 10:53:01;;;;;;;7.60;1.50;;;9.70;87.70;;;;;;5108028;27;20411;-91
2023/01/08 10:55:30;;;;;;;8.65;1.08;;;9.90;86.50;;;;;;5090499;27;20434;-89
2023/01/08 10:58:08;;;;;;;6.00;0.75;;;10.10;85.80;;;;;;5107231;27;20448;-90
2023/01/08 11:00:35;;;;;;;8.77;0.95;;;10.30;85.00;;;;;;5091048;27;20415;-90
2023/01/08 11:03:05;;;;;;;6.25;0.80;;;10.40;83.80;;;;;;5106473;28;20466;-91
2023/01/08 11:05:39;;;;;;;5.97;0.85;;;10.40;83.70;;;;;;5091073;28;20466;-91
2023/01/08 11:08:07;;;;;;;8.13;1.10;;;10.40;83.20;;;;;;5089929;28;20972;-90
2023/01/08 11:10:35;;;;;;;7.28;0.93;;;10.50;84.30;;;;;;5090238;28;20858;-90
2023/01/08 11:13:03;;;;;;;8.65;1.10;;;10.60;83.30;;;;;;5090437;28;20399;-89
2023/01/08 11:15:31;;;;;;;8.45;1.00;;;10.50;82.30;;;;;;5106652;28;20531;-89
2023/01/08 11:18:16;;;;;;;7.95;1.00;;;10.50;82.30;;;;;;5090602;28;21308;-89
2023/01/08 11:20:42;;;;;;;7.72;1.05;;;10.30;82.80;;;;;;5089377;28;20414;-89
2023/01/08 11:23:14;;;;;;;9.48;0.90;;;10.30;83.70;;;;;;5090514;27;20443;-89
2023/01/08 11:25:43;;;;;;;7.55;0.88;;;10.40;84.00;;;;;;5110764;27;20506;-89
2023/01/08 11:28:14;;;;;;;7.80;1.40;;;10.40;83.00;;;;;;5094358;27;20469;-89
2023/01/08 11:30:46;;;;;;;9.95;1.60;;;10.40;83.60;;;;;;5094201;27;20430;-90
2023/01/08 11:33:20;;;;;;;9.75;1.33;;;10.50;83.80;;;;;;5093198;27;20402;-91
2023/01/08 11:35:52;;;;;;;10.75;1.20;;;10.50;83.00;;;;;;5095064;27;20406;-90
2023/01/08 11:38:18;;;;;;;8.07;1.45;;;10.40;82.40;;;;;;5094261;27;20734;-90
2023/01/08 11:40:51;;;;;;;7.97;1.27;;;10.60;82.90;;;;;;5094772;27;20454;-89
2023/01/08 11:44:18;;;;;;;8.27;1.27;;;10.30;83.00;;;;;;5094160;27;20402;-89
2023/01/08 11:47:11;;;;;;;8.85;1.25;;;10.30;84.00;;;;;;5065404;27;20413;-88
2023/01/08 11:50:04;;;;;;;8.27;1.10;;;10.30;82.80;;;;;;5094137;27;20426;-90
2023/01/08 11:53:07;;;;;;;6.85;1.10;;;10.30;83.00;;;;;;5094792;27;20464;-89
2023/01/08 11:55:46;;;;;;;8.25;1.35;;;10.40;82.60;;;;;;5093539;27;20479;-90
2023/01/08 11:58:57;;;;;;;8.38;1.50;;;10.30;82.60;;;;;;5093734;27;20492;-90
2023/01/08 12:01:25;;;;;;;11.98;1.70;;;10.30;83.00;;;;;;5039237;27;20410;-90
2023/01/08 12:04:23;;;;;;;7.65;1.73;;;10.40;82.90;;;;;;5109991;27;20727;-90
2023/01/08 12:07:11;;;;;;;9.57;1.33;;;10.40;82.70;;;;;;5110897;27;20406;-89
2023/01/08 12:09:45;;;;;;;9.40;1.67;;;10.40;82.60;;;;;;5111010;27;20930;-90
2023/01/08 12:12:32;;;;;;;10.57;1.60;;;10.80;82.70;;;;;;5092633;27;20952;-89
2023/01/08 12:15:19;;;;;;;6.80;1.85;;;11.20;79.70;;;;;;5110828;27;20406;-91
2023/01/08 12:17:57;;;;;;;8.52;1.73;;;11.10;78.90;;;;;;5093733;27;20471;-91
2023/01/08 12:20:37;;;;;;;9.35;1.58;;;11.50;78.50;;;;;;5093161;27;20449;-90
2023/01/08 12:23:31;;;;;;;10.07;1.63;;;11.90;77.50;;;;;;5094119;27;20790;-89
2023/01/08 12:26:18;;;;;;;8.02;1.30;;;12.00;75.90;;;;;;5092526;27;20788;-90
2023/01/08 12:28:44;;;;;;;8.52;1.08;;;11.90;75.40;;;;;;5109914;27;20445;-90
2023/01/08 12:31:31;;;;;;;8.88;1.85;;;11.80;76.40;;;;;;5093613;27;20454;-90
2023/01/08 12:34:04;;;;;;;9.05;1.48;;;11.70;77.10;;;;;;5092150;27;20399;-89
2023/01/08 12:36:40;;;;;;;9.98;1.45;;;11.60;76.90;;;;;;5092467;27;21004;-89
2023/01/08 12:39:18;;;;;;;9.25;1.73;;;11.60;77.50;;;;;;5092565;27;20390;-88
2023/01/08 12:41:45;;;;;;;10.13;2.00;;;11.40;77.60;;;;;;5092964;27;20691;-88
2023/01/08 12:44:17;;;;;;;8.55;1.73;;;11.30;79.30;;;;;;5092772;27;20399;-91
2023/01/08 12:46:46;;;;;;;9.85;2.00;;;11.30;79.70;;;;;;5091554;27;20403;-90
2023/01/08 12:49:22;;;;;;;9.68;1.90;;;11.50;78.90;;;;;;5093093;27;20387;-90
2023/01/08 12:52:02;;;;;;;8.32;1.77;;;11.10;78.80;;;;;;5092054;27;20439;-90
2023/01/08 12:54:41;;;;;;;8.60;2.17;;;11.00;79.20;;;;;;5092581;27;21024;-91
2023/01/08 12:57:13;;;;;;;9.20;2.13;;;11.00;80.50;;;;;;5110307;27;20411;-90
2023/01/08 12:59:52;;;;;;;7.43;1.90;;;11.10;80.30;;;;;;5092098;27;20723;-91
2023/01/08 13:02:44;;;;;;;9.80;2.10;;;11.20;79.90;;;;;;5092675;27;20435;-90
2023/01/08 13:05:32;;;;;;;7.18;1.52;;;11.20;79.10;;;;;;5092383;27;20409;-90